createdAt,value
2018-03-07T00:01:42.620Z,57.54
2018-03-07T00:04:11.056Z,59.55
2018-03-07T00:06:39.533Z,59.68
2018-03-07T00:09:07.933Z,59.62
2018-03-07T00:11:36.356Z,59.96
2018-03-07T00:14:04.776Z,59.65
2018-03-07T00:16:33.183Z,58.28
2018-03-07T00:19:01.941Z,58.46
2018-03-07T00:21:30.335Z,57.72
2018-03-07T00:23:58.749Z,56.13
2018-03-07T00:26:27.155Z,56.69
2018-03-07T00:28:55.546Z,55.53
2018-03-07T00:31:24.022Z,55.04
2018-03-07T00:33:52.425Z,54.71
2018-03-07T00:36:20.839Z,54.40
2018-03-07T00:38:49.248Z,54.50
2018-03-07T00:41:17.836Z,56.05
2018-03-07T00:43:46.261Z,55.25
2018-03-07T00:46:14.683Z,55.59
2018-03-07T00:48:43.084Z,56.49
2018-03-07T00:51:11.584Z,57.07
2018-03-07T00:53:40.062Z,57.02
2018-03-07T00:56:08.481Z,57.42
2018-03-07T00:58:36.888Z,56.17
2018-03-07T01:01:05.299Z,56.40
2018-03-07T01:03:33.701Z,56.85
2018-03-07T01:06:02.280Z,56.58
2018-03-07T01:08:30.692Z,56.16
2018-03-07T01:10:59.207Z,55.61
2018-03-07T01:13:27.625Z,54.94
2018-03-07T01:15:56.172Z,55.25
2018-03-07T01:18:24.592Z,54.66
2018-03-07T01:20:53.104Z,54.15
2018-03-07T01:23:21.514Z,53.97
2018-03-07T01:25:50.048Z,53.98
2018-03-07T01:28:18.459Z,54.43
2018-03-07T01:30:47.103Z,54.20
2018-03-07T01:33:15.516Z,54.50
2018-03-07T01:35:43.939Z,54.43
2018-03-07T01:38:12.349Z,54.50
2018-03-07T01:40:40.756Z,54.48
2018-03-07T01:43:09.241Z,54.63
2018-03-07T01:45:37.633Z,54.68
2018-03-07T01:48:06.043Z,54.23
2018-03-07T01:50:34.545Z,54.59
2018-03-07T01:53:02.940Z,56.73
2018-03-07T01:55:31.464Z,56.87
2018-03-07T01:57:59.883Z,57.70
2018-03-07T02:00:28.307Z,57.72
2018-03-07T02:02:56.720Z,58.68
2018-03-07T02:05:25.119Z,57.77
2018-03-07T02:07:53.635Z,57.32
2018-03-07T02:12:55.712Z,57.64
2018-03-07T02:15:24.120Z,58.12
2018-03-07T02:17:52.527Z,58.87
2018-03-07T02:20:20.943Z,58.18
2018-03-07T02:22:49.348Z,58.91
2018-03-07T02:25:17.796Z,59.49
2018-03-07T02:27:47.224Z,57.70
2018-03-07T02:30:15.644Z,57.81
2018-03-07T02:32:44.091Z,60.62
2018-03-07T02:35:12.501Z,58.98
2018-03-07T02:37:40.975Z,56.92
2018-03-07T02:40:09.403Z,55.99
2018-03-07T02:42:37.816Z,55.85
2018-03-07T02:45:06.224Z,56.15
2018-03-07T02:47:34.635Z,56.16
2018-03-07T02:50:03.182Z,56.56
2018-03-07T02:52:31.604Z,55.37
2018-03-07T02:55:00.025Z,55.04
2018-03-07T02:57:28.444Z,55.31
2018-03-07T02:59:56.902Z,55.87
2018-03-07T03:02:25.378Z,55.11
2018-03-07T03:04:53.855Z,55.26
2018-03-07T03:07:22.272Z,55.76
2018-03-07T03:09:50.696Z,55.09
2018-03-07T03:12:19.090Z,56.97
2018-03-07T03:14:47.560Z,59.19
2018-03-07T03:17:15.988Z,58.28
2018-03-07T03:19:44.468Z,57.55
2018-03-07T03:22:12.882Z,58.97
2018-03-07T03:24:41.295Z,58.81
2018-03-07T03:27:09.770Z,59.01
2018-03-07T03:29:38.183Z,57.12
2018-03-07T03:32:06.596Z,60.78
2018-03-07T03:34:35.007Z,58.09
2018-03-07T03:37:03.415Z,56.90
2018-03-07T03:39:31.887Z,56.77
2018-03-07T03:42:00.286Z,56.90
2018-03-07T03:44:28.738Z,58.74
2018-03-07T03:46:57.143Z,58.62
2018-03-07T03:49:25.580Z,59.96
2018-03-07T03:51:54.001Z,57.09
2018-03-07T03:54:22.404Z,56.86
2018-03-07T03:56:51.204Z,56.48
2018-03-07T03:59:19.615Z,57.67
2018-03-07T04:01:48.110Z,56.66
2018-03-07T04:04:16.517Z,56.18
2018-03-07T04:06:44.919Z,55.67
2018-03-07T04:09:13.315Z,55.32
2018-03-07T04:11:41.717Z,55.09
2018-03-07T04:14:10.156Z,58.92
2018-03-07T04:16:38.564Z,56.23
2018-03-07T04:19:06.954Z,57.94
2018-03-07T04:21:35.381Z,58.06
2018-03-07T04:24:03.766Z,59.28
2018-03-07T04:26:32.199Z,59.85
2018-03-07T04:29:00.591Z,60.06
2018-03-07T04:31:29.046Z,57.38
2018-03-07T04:33:57.535Z,56.38
2018-03-07T04:36:25.958Z,56.17
2018-03-07T04:38:54.347Z,56.25
2018-03-07T04:41:22.741Z,55.51
2018-03-07T04:43:51.135Z,55.11
2018-03-07T04:46:19.675Z,54.76
2018-03-07T04:48:48.092Z,55.05
2018-03-07T04:51:16.825Z,56.74
2018-03-07T04:53:45.234Z,54.26
2018-03-07T04:56:13.618Z,53.49
2018-03-07T04:58:42.069Z,55.27
2018-03-07T05:01:10.547Z,56.92
2018-03-07T05:03:38.940Z,59.00
2018-03-07T05:06:07.361Z,56.43
2018-03-07T05:08:35.768Z,57.05
2018-03-07T05:11:04.232Z,57.69
2018-03-07T05:13:32.748Z,57.76
2018-03-07T05:16:01.157Z,57.27
2018-03-07T05:18:30.284Z,55.75
2018-03-07T05:20:58.823Z,54.93
2018-03-07T05:23:27.227Z,54.48
2018-03-07T05:25:55.638Z,55.54
2018-03-07T05:28:24.036Z,56.56
2018-03-07T05:30:52.512Z,55.58
2018-03-07T05:33:21.056Z,54.57
2018-03-07T05:35:49.459Z,54.45
2018-03-07T05:38:17.868Z,53.73
2018-03-07T05:40:46.251Z,54.08
2018-03-07T05:43:14.663Z,54.63
2018-03-07T05:45:43.128Z,54.57
2018-03-07T05:48:11.529Z,54.05
2018-03-07T05:50:39.948Z,53.67
2018-03-07T05:53:08.330Z,54.67
2018-03-07T05:55:36.702Z,57.03
2018-03-07T05:58:05.156Z,56.65
2018-03-07T06:00:33.646Z,55.35
2018-03-07T06:03:02.059Z,54.36
2018-03-07T06:05:30.611Z,54.58
2018-03-07T06:07:59.016Z,54.57
2018-03-07T06:10:27.464Z,54.40
2018-03-07T06:12:55.969Z,54.31
2018-03-07T06:15:24.391Z,54.03
2018-03-07T06:17:52.825Z,54.49
2018-03-07T06:20:21.232Z,55.74
2018-03-07T06:22:50.022Z,55.37
2018-03-07T06:25:18.385Z,54.61
2018-03-07T06:27:46.859Z,53.97
2018-03-07T06:30:15.274Z,56.75
2018-03-07T06:32:43.680Z,57.10
2018-03-07T06:35:12.142Z,57.95
2018-03-07T06:37:40.544Z,59.86
2018-03-07T06:40:08.960Z,59.84
2018-03-07T06:42:37.361Z,61.92
2018-03-07T06:45:05.811Z,64.79
2018-03-07T06:47:34.227Z,59.53
2018-03-07T06:50:02.635Z,60.99
2018-03-07T06:52:31.045Z,62.46
2018-03-07T06:54:59.501Z,59.31
2018-03-07T06:57:28.026Z,60.16
2018-03-07T06:59:59.182Z,59.61
2018-03-07T07:02:27.644Z,58.08
2018-03-07T07:04:56.118Z,58.08
2018-03-07T07:07:25.581Z,55.98
2018-03-07T07:09:54.053Z,59.02
2018-03-07T07:12:22.458Z,57.93
2018-03-07T07:14:50.976Z,55.98
2018-03-07T07:17:22.573Z,56.86
2018-03-07T07:19:51.083Z,58.60
2018-03-07T07:22:19.614Z,59.29
2018-03-07T07:24:48.162Z,59.75
2018-03-07T07:27:16.548Z,58.50
2018-03-07T07:29:45.018Z,59.02
2018-03-07T07:32:13.435Z,60.78
2018-03-07T07:34:41.914Z,60.09
2018-03-07T07:37:10.322Z,61.43
2018-03-07T07:39:38.725Z,63.03
2018-03-07T07:42:07.118Z,60.10
2018-03-07T07:44:35.516Z,61.55
2018-03-07T07:47:03.918Z,61.29
2018-03-07T07:49:32.297Z,61.94
2018-03-07T07:52:00.877Z,61.32
2018-03-07T07:54:29.332Z,61.51
2018-03-07T07:56:57.702Z,60.54
2018-03-07T07:59:26.122Z,59.32
2018-03-07T08:01:54.612Z,57.83
2018-03-07T08:04:22.988Z,56.54
2018-03-07T08:06:51.357Z,55.88
2018-03-07T08:09:19.766Z,56.96
2018-03-07T08:11:48.159Z,55.53
2018-03-07T08:14:16.595Z,56.68
2018-03-07T08:16:45.003Z,54.58
2018-03-07T08:19:13.550Z,54.27
2018-03-07T08:21:42.024Z,50.22
2018-03-07T08:24:10.431Z,48.74
2018-03-07T08:26:38.831Z,46.39
2018-03-07T08:29:07.236Z,46.53
2018-03-07T08:31:35.688Z,48.24
2018-03-07T08:34:04.084Z,47.49
2018-03-07T08:36:32.507Z,45.65
2018-03-07T08:39:00.912Z,44.92
2018-03-07T08:41:29.321Z,39.50
2018-03-07T08:43:57.721Z,37.52
2018-03-07T08:46:26.201Z,33.23
2018-03-07T08:48:54.665Z,31.04
2018-03-07T08:51:23.088Z,32.69
2018-03-07T08:53:51.494Z,33.69
2018-03-07T08:56:19.862Z,32.14
2018-03-07T08:58:48.277Z,30.47
2018-03-07T09:01:16.875Z,28.70
2018-03-07T09:03:45.979Z,31.20
2018-03-07T09:06:14.405Z,30.98
2018-03-07T09:08:42.814Z,30.80
2018-03-07T09:11:11.219Z,30.33
2018-03-07T09:13:39.667Z,30.48
2018-03-07T09:16:08.096Z,29.95
2018-03-07T09:18:36.578Z,29.99
2018-03-07T09:21:04.959Z,31.12
2018-03-07T09:23:33.350Z,33.25
2018-03-07T09:26:01.840Z,32.81
2018-03-07T09:28:30.236Z,34.82
2018-03-07T09:30:58.676Z,32.13
2018-03-07T09:33:27.128Z,33.83
2018-03-07T09:35:55.544Z,31.91
2018-03-07T09:38:24.040Z,31.30
2018-03-07T09:40:52.451Z,30.89
2018-03-07T09:43:20.928Z,34.09
2018-03-07T09:45:49.351Z,36.40
2018-03-07T09:48:17.748Z,39.48
2018-03-07T09:50:46.155Z,38.73
2018-03-07T09:53:14.556Z,36.14
2018-03-07T09:55:43.389Z,35.17
2018-03-07T09:58:11.804Z,33.29
2018-03-07T10:00:40.248Z,33.50
2018-03-07T10:03:08.648Z,33.23
2018-03-07T10:05:37.208Z,32.05
2018-03-07T10:08:05.617Z,32.49
2018-03-07T10:10:33.996Z,33.96
2018-03-07T10:13:02.386Z,36.04
2018-03-07T10:15:30.846Z,36.27
2018-03-07T10:17:59.319Z,37.36
2018-03-07T10:20:27.764Z,39.12
2018-03-07T10:22:56.347Z,40.79
2018-03-07T10:25:24.722Z,41.69
2018-03-07T10:27:53.209Z,41.64
2018-03-07T10:30:21.612Z,44.27
2018-03-07T10:32:50.010Z,43.02
2018-03-07T10:35:18.415Z,44.89
2018-03-07T10:37:46.954Z,44.96
2018-03-07T10:40:15.398Z,45.77
2018-03-07T10:42:43.791Z,44.59
2018-03-07T10:45:12.264Z,43.10
2018-03-07T10:47:40.660Z,39.35
2018-03-07T10:50:09.048Z,36.50
2018-03-07T10:52:37.456Z,33.90
2018-03-07T10:55:06.002Z,33.03
2018-03-07T10:57:34.440Z,33.50
2018-03-07T11:00:02.856Z,34.61
2018-03-07T11:02:31.365Z,36.63
2018-03-07T11:04:59.805Z,38.98
2018-03-07T11:07:28.338Z,41.24
2018-03-07T11:09:56.706Z,41.25
2018-03-07T11:12:25.078Z,41.69
2018-03-07T11:14:53.587Z,41.87
2018-03-07T11:17:21.992Z,41.40
2018-03-07T11:19:50.412Z,41.28
2018-03-07T11:22:18.809Z,42.58
2018-03-07T11:24:47.232Z,42.71
2018-03-07T11:27:15.696Z,42.71
2018-03-07T11:29:44.100Z,42.24
2018-03-07T11:32:12.531Z,42.38
2018-03-07T11:34:41.006Z,41.42
2018-03-07T11:37:09.403Z,40.08
2018-03-07T11:39:37.873Z,39.43
2018-03-07T11:42:06.271Z,40.17
2018-03-07T11:44:34.771Z,41.08
2018-03-07T11:47:03.253Z,42.78
2018-03-07T11:49:31.643Z,45.02
2018-03-07T11:52:00.084Z,46.03
2018-03-07T11:54:28.492Z,46.49
2018-03-07T11:56:57.044Z,47.84
2018-03-07T11:59:25.432Z,46.99
2018-03-07T12:01:53.931Z,47.07
2018-03-07T12:04:22.346Z,45.70
2018-03-07T12:06:50.737Z,44.62
2018-03-07T12:09:19.152Z,45.00
2018-03-07T12:11:47.589Z,43.48
2018-03-07T12:14:16.122Z,42.51
2018-03-07T12:16:44.518Z,43.68
2018-03-07T12:19:12.938Z,42.11
2018-03-07T12:21:41.371Z,40.95
2018-03-07T12:24:09.894Z,38.21
2018-03-07T12:26:38.343Z,38.32
2018-03-07T12:29:06.720Z,39.73
2018-03-07T12:31:35.095Z,39.36
2018-03-07T12:34:03.473Z,39.69
2018-03-07T12:36:31.867Z,41.60
2018-03-07T12:39:00.341Z,42.61
2018-03-07T12:41:28.861Z,43.23
2018-03-07T12:43:57.297Z,43.91
2018-03-07T12:46:25.743Z,44.10
2018-03-07T12:48:54.240Z,42.52
2018-03-07T12:51:22.736Z,43.93
2018-03-07T12:53:51.153Z,46.17
2018-03-07T12:56:19.729Z,46.30
2018-03-07T12:58:48.208Z,46.39
2018-03-07T13:01:16.607Z,47.12
2018-03-07T13:03:44.994Z,48.15
2018-03-07T13:06:13.392Z,48.52
2018-03-07T13:08:42.025Z,48.36
2018-03-07T13:11:10.431Z,48.30
2018-03-07T13:13:38.816Z,47.34
2018-03-07T13:16:07.209Z,47.30
2018-03-07T13:18:35.626Z,45.51
2018-03-07T13:21:04.080Z,45.88
2018-03-07T13:23:32.497Z,47.71
2018-03-07T13:26:00.943Z,48.86
2018-03-07T13:28:29.356Z,51.18
2018-03-07T13:30:57.768Z,50.35
2018-03-07T13:33:26.188Z,50.56
2018-03-07T13:35:54.608Z,49.92
2018-03-07T13:38:23.083Z,50.21
2018-03-07T13:40:51.506Z,49.86
2018-03-07T13:43:19.901Z,49.25
2018-03-07T13:45:48.296Z,48.37
2018-03-07T13:48:16.659Z,49.59
2018-03-07T13:50:45.088Z,48.49
2018-03-07T13:53:13.452Z,48.55
2018-03-07T13:55:41.828Z,48.66
2018-03-07T13:58:10.210Z,50.09
2018-03-07T14:00:38.633Z,50.50
2018-03-07T14:03:07.043Z,50.58
2018-03-07T14:05:35.447Z,50.83
2018-03-07T14:08:03.846Z,50.40
2018-03-07T14:10:32.297Z,49.16
2018-03-07T14:13:00.716Z,49.13
2018-03-07T14:15:29.158Z,50.26
2018-03-07T14:17:57.528Z,49.16
2018-03-07T14:20:25.926Z,50.30
2018-03-07T14:22:54.276Z,52.43
2018-03-07T14:25:22.643Z,52.56
2018-03-07T14:27:51.308Z,51.15
2018-03-07T14:30:19.670Z,52.29
2018-03-07T14:32:48.035Z,52.17
2018-03-07T14:35:16.462Z,50.68
2018-03-07T14:37:44.885Z,51.00
2018-03-07T14:40:13.382Z,50.34
2018-03-07T14:42:41.749Z,53.04
2018-03-07T14:45:10.123Z,52.22
2018-03-07T14:47:38.507Z,50.39
2018-03-07T14:50:08.417Z,52.07
2018-03-07T14:52:37.027Z,52.13
2018-03-07T14:55:05.698Z,52.60
2018-03-07T14:57:34.090Z,52.96
2018-03-07T15:00:02.566Z,51.37
2018-03-07T15:02:30.990Z,52.95
2018-03-07T15:05:00.610Z,54.29
2018-03-07T15:07:30.796Z,52.99
2018-03-07T15:09:59.399Z,54.58
2018-03-07T15:12:28.055Z,53.82
2018-03-07T15:14:56.457Z,53.95
2018-03-07T15:17:24.941Z,54.42
2018-03-07T15:19:53.381Z,54.64
2018-03-07T15:22:21.780Z,53.21
2018-03-07T15:24:50.196Z,51.74
2018-03-07T15:27:18.773Z,52.54
2018-03-07T15:29:47.256Z,51.74
2018-03-07T15:32:16.791Z,50.36
2018-03-07T15:34:45.573Z,50.35
2018-03-07T15:37:13.991Z,51.23
2018-03-07T15:39:42.441Z,49.36
2018-03-07T15:42:10.896Z,50.55
2018-03-07T15:44:39.481Z,49.33
2018-03-07T15:47:07.939Z,51.29
2018-03-07T15:49:36.387Z,50.13
2018-03-07T15:52:04.756Z,52.33
2018-03-07T15:54:33.359Z,53.18
2018-03-07T15:57:01.747Z,51.59
2018-03-07T15:59:30.200Z,51.94
2018-03-07T16:01:58.695Z,52.31
2018-03-07T16:04:27.127Z,52.55
2018-03-07T16:06:55.667Z,50.81
2018-03-07T16:09:24.173Z,52.31
2018-03-07T16:11:52.604Z,50.59
2018-03-07T16:14:21.182Z,49.39
2018-03-07T16:16:49.582Z,49.82
2018-03-07T16:19:18.070Z,48.96
2018-03-07T16:21:46.442Z,49.83
2018-03-07T16:24:14.826Z,48.81
2018-03-07T16:26:43.253Z,50.21
2018-03-07T16:29:11.705Z,50.07
2018-03-07T16:31:40.136Z,50.06
2018-03-07T16:34:08.748Z,49.11
2018-03-07T16:36:37.420Z,48.03
2018-03-07T16:39:05.887Z,50.54
2018-03-07T16:41:34.484Z,53.14
2018-03-07T16:44:03.496Z,51.65
2018-03-07T16:46:31.854Z,51.59
2018-03-07T16:49:00.384Z,52.00
2018-03-07T16:51:28.775Z,52.46
2018-03-07T16:53:57.568Z,54.10
2018-03-07T16:56:26.276Z,55.36
2018-03-07T16:58:54.692Z,53.01
2018-03-07T17:01:23.096Z,53.70
2018-03-07T17:03:51.480Z,52.45
2018-03-07T17:06:19.967Z,52.14
2018-03-07T17:08:50.760Z,52.65
2018-03-07T17:11:20.226Z,53.24
2018-03-07T17:13:48.746Z,53.44
2018-03-07T17:16:17.158Z,54.82
2018-03-07T17:18:45.543Z,54.28
2018-03-07T17:21:13.911Z,55.82
2018-03-07T17:23:42.270Z,52.22
2018-03-07T17:26:10.749Z,51.25
2018-03-07T17:31:12.840Z,53.75
2018-03-07T17:33:41.219Z,55.27
2018-03-07T17:36:09.584Z,55.73
2018-03-07T17:38:38.000Z,56.31
2018-03-07T17:41:06.445Z,58.24
2018-03-07T17:43:34.923Z,55.93
2018-03-07T17:46:03.313Z,56.67
2018-03-07T17:48:31.690Z,57.34
2018-03-07T17:51:00.094Z,56.84
2018-03-07T17:53:28.490Z,54.34
2018-03-07T17:55:56.962Z,56.20
2018-03-07T17:58:25.352Z,54.25
2018-03-07T18:00:53.791Z,57.40
2018-03-07T18:03:22.180Z,55.84
2018-03-07T18:05:50.575Z,54.41
2018-03-07T18:08:18.972Z,56.22
2018-03-07T18:10:47.343Z,54.66
2018-03-07T18:13:15.792Z,55.89
2018-03-07T18:15:44.189Z,57.48
2018-03-07T18:18:12.540Z,55.56
2018-03-07T18:20:40.927Z,56.99
2018-03-07T18:23:09.336Z,55.15
2018-03-07T18:25:37.965Z,56.32
2018-03-07T18:28:06.473Z,54.34
2018-03-07T18:30:34.883Z,56.77
2018-03-07T18:33:03.280Z,54.88
2018-03-07T18:35:31.670Z,53.95
2018-03-07T18:38:00.302Z,53.76
2018-03-07T18:40:29.394Z,57.33
2018-03-07T18:42:57.771Z,56.75
2018-03-07T18:45:26.216Z,56.31
2018-03-07T18:47:54.574Z,57.39
2018-03-07T18:50:22.966Z,54.82
2018-03-07T18:52:51.335Z,56.11
2018-03-07T18:55:19.821Z,56.90
2018-03-07T18:57:48.175Z,57.35
2018-03-07T19:00:16.547Z,58.83
2018-03-07T19:02:44.967Z,59.31
2018-03-07T19:05:13.337Z,57.20
2018-03-07T19:07:41.984Z,57.15
2018-03-07T19:10:10.431Z,57.73
2018-03-07T19:12:38.928Z,55.40
2018-03-07T19:15:07.370Z,58.52
2018-03-07T19:17:35.790Z,56.03
2018-03-07T19:20:04.730Z,55.78
2018-03-07T19:22:33.109Z,54.94
2018-03-07T19:25:01.545Z,55.39
2018-03-07T19:27:29.942Z,57.75
2018-03-07T19:29:58.351Z,57.69
2018-03-07T19:32:26.829Z,55.88
2018-03-07T19:34:55.235Z,56.21
2018-03-07T19:37:23.611Z,57.98
2018-03-07T19:39:51.984Z,56.31
2018-03-07T19:42:20.407Z,56.20
2018-03-07T19:44:48.807Z,57.91
2018-03-07T19:47:17.208Z,57.18
2018-03-07T19:49:45.676Z,56.40
2018-03-07T19:52:14.108Z,55.49
2018-03-07T19:54:42.665Z,55.90
2018-03-07T19:57:11.061Z,56.36
2018-03-07T19:59:39.572Z,57.75
2018-03-07T20:02:08.000Z,56.45
2018-03-07T20:04:36.429Z,58.72
2018-03-07T20:07:04.865Z,58.73
2018-03-07T20:09:33.251Z,58.53
2018-03-07T20:12:01.683Z,58.21
2018-03-07T20:14:30.250Z,57.49
2018-03-07T20:16:58.719Z,55.79
2018-03-07T20:19:27.159Z,59.21
2018-03-07T20:21:55.671Z,58.50
2018-03-07T20:24:24.158Z,57.21
2018-03-07T20:26:52.559Z,59.08
2018-03-07T20:29:21.108Z,59.02
2018-03-07T20:31:49.559Z,56.39
2018-03-07T20:34:17.992Z,59.50
2018-03-07T20:36:46.434Z,59.95
2018-03-07T20:39:14.852Z,57.60
2018-03-07T20:41:43.352Z,55.41
2018-03-07T20:44:11.761Z,58.56
2018-03-07T20:46:40.227Z,57.30
2018-03-07T20:49:08.595Z,57.71
2018-03-07T20:51:36.990Z,57.87
2018-03-07T20:54:05.377Z,59.99
2018-03-07T20:56:33.787Z,60.46
2018-03-07T20:59:02.329Z,60.60
2018-03-07T21:01:30.732Z,59.07
2018-03-07T21:03:59.654Z,59.84
2018-03-07T21:06:28.020Z,61.25
2018-03-07T21:08:56.440Z,59.15
2018-03-07T21:11:24.986Z,58.58
2018-03-07T21:13:53.421Z,59.73
2018-03-07T21:16:21.888Z,57.53
2018-03-07T21:18:50.309Z,59.13
2018-03-07T21:21:18.689Z,59.32
2018-03-07T21:23:47.096Z,59.41
2018-03-07T21:26:15.499Z,62.94
2018-03-07T21:28:43.929Z,61.77
2018-03-07T21:31:12.335Z,62.99
2018-03-07T21:33:41.123Z,62.87
2018-03-07T21:36:09.874Z,63.68
2018-03-07T21:38:38.430Z,63.37
2018-03-07T21:41:06.868Z,62.22
2018-03-07T21:43:35.258Z,60.90
2018-03-07T21:46:03.636Z,61.83
2018-03-07T21:48:32.207Z,62.89
2018-03-07T21:51:00.657Z,62.95
2018-03-07T21:53:29.075Z,63.00
2018-03-07T21:55:57.503Z,62.16
2018-03-07T21:58:25.892Z,64.96
2018-03-07T22:00:54.519Z,63.44
2018-03-07T22:03:22.921Z,63.76
2018-03-07T22:05:51.298Z,64.07
2018-03-07T22:08:19.701Z,62.41
2018-03-07T22:10:48.110Z,63.82
2018-03-07T22:13:16.957Z,62.46
2018-03-07T22:15:45.394Z,61.96
2018-03-07T22:18:13.861Z,63.24
2018-03-07T22:20:42.320Z,63.55
2018-03-07T22:23:10.705Z,63.53
2018-03-07T22:25:39.124Z,67.49
2018-03-07T22:28:07.516Z,65.07
2018-03-07T22:30:35.879Z,65.59
2018-03-07T22:33:04.254Z,64.89
2018-03-07T22:35:32.639Z,65.41
2018-03-07T22:38:03.697Z,66.06
2018-03-07T22:40:39.717Z,65.62
2018-03-07T22:43:09.464Z,66.67
2018-03-07T22:45:37.850Z,65.91
2018-03-07T22:48:06.256Z,68.27
2018-03-07T22:50:34.648Z,65.84
2018-03-07T22:53:03.018Z,64.81
2018-03-07T22:55:31.409Z,64.85
2018-03-07T22:57:59.808Z,67.13
2018-03-07T23:00:33.840Z,67.02
2018-03-07T23:03:02.232Z,66.23
2018-03-07T23:05:30.636Z,67.27
2018-03-07T23:07:59.027Z,66.17
2018-03-07T23:10:27.408Z,66.63
2018-03-07T23:12:56.047Z,66.65
2018-03-07T23:15:24.705Z,65.33
2018-03-07T23:17:53.077Z,67.42
2018-03-07T23:20:21.481Z,66.03
2018-03-07T23:22:50.056Z,66.93
2018-03-07T23:25:18.663Z,68.57
2018-03-07T23:27:47.051Z,69.62
2018-03-07T23:30:15.463Z,68.53
2018-03-07T23:32:43.846Z,64.45
2018-03-07T23:35:12.230Z,68.69
2018-03-07T23:37:40.625Z,66.18
2018-03-07T23:40:09.021Z,65.87
2018-03-07T23:42:37.575Z,68.68
2018-03-07T23:45:06.288Z,67.58
2018-03-07T23:47:34.687Z,70.49
2018-03-07T23:50:03.071Z,69.52
2018-03-07T23:52:31.467Z,71.02
2018-03-07T23:54:59.972Z,70.80
2018-03-07T23:57:28.374Z,70.94
2018-03-07T23:59:56.772Z,67.82
